Millboro, South Dakota
Current Conditions -  °F | °C
As of 3:53 AM on Saturday 22 Nov 2014 (Local Time) from KICR Reporting Station
Clear Clear  
Wind Chill: 32°   Ceiling: Unl
Heat Index: 37°   Visibility: 10mi
Dew Point: 25°   Wind: 6mph
Humidity: 62%   Direction: 210°SSW
Pressure: 29.75"   Gusts: NA
Location:  43.2923°N, 99.8934°W
Report Text: KICR 220953Z AUTO 21005KT 10SM CLR 03/M04 A2975 RMK AO2 SLP084 T00281039
Loading
Personal Weather Stations






























Interactive Weather Map New forecast layout! Learn more

10-Day Weather Forecast

Advertisements
Track Severe Weather on mobile